Weaverville, NC

5:12 AM EDT on July 29, 2016 (GMT -0400)
Reems Creek Valley - Weaverville, NC | | Change Station

Elev 2244 ft 35.69 °N, 82.51 °W | Updated 13 seconds ago

Light Rain
Light Rain
71.7 °F
Feels Like 71 °F
N
0.0
Wind Variable Wind from North
Gusts 2.0 mph

Today
High -- | Low -- °F
--% Chance of Precip.
Yesterday
High -- | Low -- °F
Precip. -- in
Pressure 29.94 in
Visibility 10.0 miles
Clouds Few 5000 ft
Scattered Clouds 7000 ft
Mostly Cloudy 12000 ft
Heat Index 71 °F
Dew Point 67 °F
Humidity 85%
Rainfall 0.00 in
Snow Depth Not available.
6:36 AM 8:36 PM
Waning Crescent, 23% visible
METAR KAVL 290854Z AUTO 29007KT 10SM -RA FEW050 SCT070 BKN120 21/19 A3003 RMK AO2 SLP136 P0001 60001 T02110189 53004
Pressure 29.94 in
Visibility 10.0 miles
Clouds Few 5000 ft
Scattered Clouds 7000 ft
Mostly Cloudy 12000 ft
Heat Index 71 °F
Dew Point 67 °F
Humidity 85%
Rainfall 0.00 in
Snow Depth Not available.
6:36 AM 8:36 PM
Waning Crescent, 23% visible
METAR KAVL 290854Z AUTO 29007KT 10SM -RA FEW050 SCT070 BKN120 21/19 A3003 RMK AO2 SLP136 P0001 60001 T02110189 53004

10-Day Weather Forecast

Almanac

Astronomy

Jul. 29, 2016 Rise Set
Actual Time
Civil Twilight
Nautical Twilight
Astronomical Twilight
Moon
Length of Visible Light
Length of Day
Tomorrow will be .
, % of the Moon is Illuminated

Today's Extremes

State Highs State Lows

Community

WunderPhotos

Upload Photos

1,928,300 photos uploaded!

WunderBlog® & News

Nearby

Air Quality

  Air Quality AQ Index Pollutant
Not available.

Snow Depth

Station Depth Elevation

Earthquake Activity

City Distance Mag. Time & Date
Minimum magnitude displayed is 2.5.

Coastal Water Temperatures

Place Temperature

Stations

Nearby Weather Stations

Station Location Temp. Windchill Dew Point Humidity Wind Precip. Elev Updated Type
                   

Watches & Warnings

There are currently no watches in effect.